Terminal Aerodrome Forecast
Issued by NWS Denver/Boulder, CO

Home | Current Version | Previous Version | Text Only | Print | Product List | Glossary On
Versions: 1 2 3 4 5 6 7 8 9 10 11 12 13 14 15 16 17 18 19 20 21 22 23 24 25 26 27 28 29 30 31 32
000
FTUS45 KBOU 160408 AAF
TAFDEN
TAF AMD
KDEN 160408Z 1604/1706 36007KT P6SM BKN080 OVC150
      TEMPO 1604/1606 -SHRA BKN060
     FM160600 04007KT P6SM VCSH SCT030 OVC050
     FM161000 06007KT P6SM OVC015
     FM161600 VRB05KT P6SM SCT015 OVC040
     FM162000 02006KT P6SM SCT050 BKN080
     FM162200 02008KT P6SM VCSH SCT050 BKN070
     FM170200 08008KT P6SM FEW050 SCT070 BKN110=

USA.gov is the U.S. government's official web portal to all federal, state and local government web resources and services.